createdAt,value
2023-05-02T00:00:29.349Z,102146.44
2023-05-02T00:02:56.019Z,102139.31
2023-05-02T00:05:22.648Z,102133.69
2023-05-02T00:07:49.442Z,102136.88
2023-05-02T00:10:15.826Z,102141.41
2023-05-02T00:12:42.149Z,102136.50
2023-05-02T00:15:09.196Z,102140.31
2023-05-02T00:17:35.807Z,102137.25
2023-05-02T00:20:05.535Z,102139.22
2023-05-02T00:22:32.276Z,102133.19
2023-05-02T00:24:59.065Z,102139.59
2023-05-02T00:27:25.453Z,102134.91
2023-05-02T00:29:52.370Z,102146.22
2023-05-02T00:32:18.930Z,102144.25
2023-05-02T00:34:45.448Z,102140.44
2023-05-02T00:37:11.903Z,102146.72
2023-05-02T00:39:38.389Z,102148.44
2023-05-02T00:42:04.954Z,102150.38
2023-05-02T00:44:31.595Z,102148.44
2023-05-02T00:47:01.639Z,102142.38
2023-05-02T00:49:28.531Z,102147.94
2023-05-02T00:51:55.074Z,102155.44
2023-05-02T00:54:21.584Z,102163.66
2023-05-02T00:56:48.413Z,102156.53
2023-05-02T00:59:15.476Z,102163.28
2023-05-02T01:02:00.604Z,102168.81
2023-05-02T01:04:32.954Z,102175.44
2023-05-02T01:07:22.308Z,102178.88
2023-05-02T01:10:15.029Z,102182.44
2023-05-02T01:13:00.632Z,102180.59
2023-05-02T01:15:28.161Z,102175.19
2023-05-02T01:17:56.475Z,102166.97
2023-05-02T01:20:27.831Z,102186.50
2023-05-02T01:22:58.277Z,102186.25
2023-05-02T01:25:51.222Z,102201.19
2023-05-02T01:28:34.713Z,102195.41
2023-05-02T01:31:04.589Z,102197.00
2023-05-02T01:33:32.840Z,102191.22
2023-05-02T01:36:01.785Z,102194.66
2023-05-02T01:38:29.461Z,102207.28
2023-05-02T01:41:03.251Z,102206.81
2023-05-02T01:43:31.870Z,102205.94
2023-05-02T01:46:01.999Z,102212.41
2023-05-02T01:48:28.965Z,102209.00
2023-05-02T01:50:57.630Z,102211.41
2023-05-02T01:53:28.155Z,102217.91
2023-05-02T01:55:55.940Z,102228.81
2023-05-02T01:58:23.554Z,102236.38
2023-05-02T02:00:51.275Z,102229.84
2023-05-02T02:03:18.912Z,102236.47
2023-05-02T02:05:48.411Z,102235.59
2023-05-02T02:08:14.798Z,102235.59
2023-05-02T02:10:45.389Z,102227.31
2023-05-02T02:13:26.336Z,102232.34
2023-05-02T02:15:59.006Z,102240.19
2023-05-02T02:18:27.798Z,102240.44
2023-05-02T02:20:55.336Z,102250.22
2023-05-02T02:23:26.766Z,102248.88
2023-05-02T02:25:55.467Z,102258.81
2023-05-02T02:28:21.815Z,102264.19
2023-05-02T02:30:48.343Z,102270.56
2023-05-02T02:33:14.854Z,102272.84
2023-05-02T02:35:46.367Z,102267.34
2023-05-02T02:38:37.955Z,102266.59
2023-05-02T02:41:16.544Z,102267.78
2023-05-02T02:44:00.317Z,102273.31
2023-05-02T02:47:05.640Z,102287.44
2023-05-02T02:49:44.377Z,102279.69
2023-05-02T02:52:18.362Z,102284.13
2023-05-02T02:55:15.077Z,102282.50
2023-05-02T02:58:08.635Z,102286.28
2023-05-02T03:00:36.067Z,102295.34
2023-05-02T03:03:02.829Z,102290.28
2023-05-02T03:05:33.327Z,102296.56
2023-05-02T03:08:00.664Z,102305.28
2023-05-02T03:10:27.034Z,102310.03
2023-05-02T03:12:55.627Z,102300.75
2023-05-02T03:15:49.757Z,102314.31
2023-05-02T03:18:16.727Z,102315.97
2023-05-02T03:20:43.344Z,102317.66
2023-05-02T03:23:09.998Z,102311.53
2023-05-02T03:25:36.930Z,102311.63
2023-05-02T03:28:03.478Z,102318.13
2023-05-02T03:30:29.902Z,102326.53
2023-05-02T03:32:57.132Z,102331.03
2023-05-02T03:35:23.533Z,102327.47
2023-05-02T03:37:50.658Z,102328.06
2023-05-02T03:40:21.508Z,102328.16
2023-05-02T03:42:47.882Z,102339.28
2023-05-02T03:45:14.490Z,102336.47
2023-05-02T03:47:40.985Z,102344.44
2023-05-02T03:50:08.013Z,102341.72
2023-05-02T03:52:34.412Z,102347.59
2023-05-02T03:55:01.729Z,102340.13
2023-05-02T03:57:31.222Z,102350.28
2023-05-02T03:59:57.844Z,102355.00
2023-05-02T04:02:25.328Z,102355.25
2023-05-02T04:04:52.089Z,102359.03
2023-05-02T04:07:19.369Z,102359.34
2023-05-02T04:09:46.066Z,102363.00
2023-05-02T04:12:12.932Z,102362.25
2023-05-02T04:14:39.309Z,102363.75
2023-05-02T04:17:06.623Z,102371.84
2023-05-02T04:19:34.445Z,102371.97
2023-05-02T04:22:02.786Z,102372.84
2023-05-02T04:24:29.619Z,102375.72
2023-05-02T04:26:56.092Z,102383.16
2023-05-02T04:29:22.407Z,102379.59
2023-05-02T04:31:49.180Z,102390.47
2023-05-02T04:34:15.572Z,102392.63
2023-05-02T04:36:42.007Z,102411.63
2023-05-02T04:39:08.414Z,102409.44
2023-05-02T04:41:34.820Z,102423.13
2023-05-02T04:44:01.191Z,102423.03
2023-05-02T04:46:36.844Z,102425.38
2023-05-02T04:49:03.298Z,102433.34
2023-05-02T04:51:31.714Z,102437.63
2023-05-02T04:53:58.112Z,102444.66
2023-05-02T04:56:24.446Z,102438.28
2023-05-02T04:58:51.406Z,102450.13
2023-05-02T05:01:18.149Z,102454.44
2023-05-02T05:03:44.837Z,102443.47
2023-05-02T05:06:12.530Z,102450.88
2023-05-02T05:08:42.444Z,102451.31
2023-05-02T05:11:08.808Z,102462.63
2023-05-02T05:13:35.852Z,102466.28
2023-05-02T05:16:02.911Z,102470.81
2023-05-02T05:18:29.334Z,102469.63
2023-05-02T05:20:55.757Z,102469.06
2023-05-02T05:23:22.338Z,102476.75
2023-05-02T05:25:48.765Z,102482.78
2023-05-02T05:28:15.206Z,102476.75
2023-05-02T05:30:41.602Z,102493.31
2023-05-02T05:33:08.079Z,102496.97
2023-05-02T05:35:34.457Z,102492.00
2023-05-02T05:38:00.982Z,102514.72
2023-05-02T05:40:27.618Z,102511.47
2023-05-02T05:42:53.991Z,102512.63
2023-05-02T05:45:20.414Z,102517.44
2023-05-02T05:47:46.905Z,102517.44
2023-05-02T05:50:13.298Z,102527.34
2023-05-02T05:52:39.777Z,102528.88
2023-05-02T05:55:06.747Z,102526.53
2023-05-02T05:57:33.107Z,102536.25
2023-05-02T05:59:59.775Z,102544.44
2023-05-02T06:02:26.424Z,102550.06
2023-05-02T06:04:52.935Z,102554.28
2023-05-02T06:07:19.297Z,102553.34
2023-05-02T06:09:45.660Z,102557.19
2023-05-02T06:12:16.395Z,102556.97
2023-05-02T06:14:42.952Z,102555.47
2023-05-02T06:17:09.371Z,102563.75
2023-05-02T06:19:35.838Z,102563.53
2023-05-02T06:22:02.310Z,102574.59
2023-05-02T06:24:28.751Z,102576.69
2023-05-02T06:26:55.183Z,102579.84
2023-05-02T06:29:21.510Z,102578.31
2023-05-02T06:31:47.963Z,102587.16
2023-05-02T06:34:14.362Z,102591.47
2023-05-02T06:36:40.729Z,102591.09
2023-05-02T06:39:07.267Z,102594.56
2023-05-02T06:41:33.731Z,102605.13
2023-05-02T06:44:00.794Z,102606.34
2023-05-02T06:46:30.607Z,102612.91
2023-05-02T06:48:57.209Z,102615.59
2023-05-02T06:51:27.663Z,102624.19
2023-05-02T06:53:54.010Z,102623.19
2023-05-02T06:56:20.401Z,102630.91
2023-05-02T06:58:46.741Z,102631.31
2023-05-02T07:01:13.194Z,102639.09
2023-05-02T07:03:39.753Z,102648.53
2023-05-02T07:06:06.263Z,102653.34
2023-05-02T07:08:33.955Z,102663.66
2023-05-02T07:11:00.391Z,102660.19
2023-05-02T07:13:28.510Z,102664.34
2023-05-02T07:15:55.284Z,102661.34
2023-05-02T07:18:21.883Z,102665.56
2023-05-02T07:20:48.443Z,102670.47
2023-05-02T07:23:14.843Z,102669.59
2023-05-02T07:25:41.238Z,102673.75
2023-05-02T07:28:08.054Z,102688.94
2023-05-02T07:30:34.499Z,102681.72
2023-05-02T07:33:00.972Z,102686.31
2023-05-02T07:35:27.586Z,102685.72
2023-05-02T07:37:53.993Z,102687.69
2023-05-02T07:40:20.701Z,102691.25
2023-05-02T07:42:47.134Z,102689.44
2023-05-02T07:45:13.668Z,102687.19
2023-05-02T07:47:40.191Z,102699.63
2023-05-02T07:50:07.021Z,102696.81
2023-05-02T07:52:33.438Z,102700.66
2023-05-02T07:54:59.834Z,102698.34
2023-05-02T07:57:26.927Z,102703.34
2023-05-02T07:59:53.420Z,102709.31
2023-05-02T08:02:20.743Z,102713.75
2023-05-02T08:04:47.988Z,102712.88
2023-05-02T08:07:14.512Z,102725.09
2023-05-02T08:09:40.947Z,102713.97
2023-05-02T08:12:07.395Z,102719.91
2023-05-02T08:14:33.934Z,102720.88
2023-05-02T08:17:01.218Z,102718.84
2023-05-02T08:19:27.946Z,102721.16
2023-05-02T08:21:54.739Z,102727.31
2023-05-02T08:24:21.752Z,102736.25
2023-05-02T08:26:48.093Z,102728.94
2023-05-02T08:29:14.473Z,102741.03
2023-05-02T08:31:41.250Z,102738.03
2023-05-02T08:34:07.880Z,102738.72
2023-05-02T08:36:34.456Z,102742.84
2023-05-02T08:39:00.819Z,102748.53
2023-05-02T08:41:29.166Z,102754.69
2023-05-02T08:43:56.878Z,102755.28
2023-05-02T08:46:28.957Z,102755.38
2023-05-02T08:48:58.874Z,102765.47
2023-05-02T08:51:25.875Z,102761.47
2023-05-02T08:53:52.383Z,102763.88
2023-05-02T08:56:19.705Z,102759.59
2023-05-02T08:58:46.175Z,102758.16
2023-05-02T09:01:19.638Z,102768.75
2023-05-02T09:03:47.573Z,102772.63
2023-05-02T09:06:19.126Z,102773.16
2023-05-02T09:08:50.488Z,102772.13
2023-05-02T09:11:17.368Z,102772.69
2023-05-02T09:13:48.337Z,102773.03
2023-05-02T09:16:17.878Z,102776.50
2023-05-02T09:18:49.736Z,102785.81
2023-05-02T09:21:25.129Z,102783.28
2023-05-02T09:23:53.609Z,102782.97
2023-05-02T09:26:31.090Z,102778.81
2023-05-02T09:28:59.722Z,102792.75
2023-05-02T09:31:49.884Z,102790.78
2023-05-02T09:34:17.674Z,102793.94
2023-05-02T09:36:53.915Z,102783.69
2023-05-02T09:39:26.070Z,102789.75
2023-05-02T09:41:54.120Z,102793.78
2023-05-02T09:44:23.616Z,102801.25
2023-05-02T09:46:55.403Z,102791.00
2023-05-02T09:49:45.439Z,102804.81
2023-05-02T09:52:17.509Z,102814.34
2023-05-02T09:54:44.287Z,102817.47
2023-05-02T09:57:11.495Z,102812.59
2023-05-02T09:59:39.467Z,102811.63
2023-05-02T10:02:07.509Z,102797.72
2023-05-02T10:04:34.645Z,102805.91
2023-05-02T10:07:03.359Z,102802.78
2023-05-02T10:09:32.648Z,102805.34
2023-05-02T10:12:03.753Z,102809.50
2023-05-02T10:14:31.629Z,102801.63
2023-05-02T10:17:21.515Z,102804.31
2023-05-02T10:20:07.378Z,102821.59
2023-05-02T10:22:34.572Z,102823.41
2023-05-02T10:25:03.174Z,102827.88
2023-05-02T10:27:30.481Z,102829.69
2023-05-02T10:29:58.761Z,102823.97
2023-05-02T10:32:28.686Z,102829.75
2023-05-02T10:34:57.463Z,102824.88
2023-05-02T10:37:25.645Z,102839.03
2023-05-02T10:39:52.275Z,102838.13
2023-05-02T10:42:20.651Z,102842.03
2023-05-02T10:44:47.278Z,102840.84
2023-05-02T10:47:26.977Z,102847.03
2023-05-02T10:50:00.348Z,102837.16
2023-05-02T10:52:41.443Z,102829.56
2023-05-02T10:55:18.086Z,102843.00
2023-05-02T10:58:00.473Z,102842.47
2023-05-02T11:00:27.047Z,102837.59
2023-05-02T11:02:54.731Z,102837.03
2023-05-02T11:05:24.879Z,102843.09
2023-05-02T11:08:19.252Z,102841.94
2023-05-02T11:10:47.264Z,102847.34
2023-05-02T11:13:13.780Z,102842.31
2023-05-02T11:15:40.114Z,102841.91
2023-05-02T11:18:14.328Z,102846.75
2023-05-02T11:20:42.965Z,102852.81
2023-05-02T11:23:15.856Z,102856.44
2023-05-02T11:26:09.846Z,102846.91
2023-05-02T11:28:41.732Z,102846.75
2023-05-02T11:31:10.864Z,102854.63
2023-05-02T11:33:37.411Z,102860.28
2023-05-02T11:36:04.148Z,102857.25
2023-05-02T11:38:38.311Z,102859.47
2023-05-02T11:41:05.151Z,102852.56
2023-05-02T11:43:32.612Z,102857.28
2023-05-02T11:46:01.757Z,102854.31
2023-05-02T11:48:30.033Z,102852.19
2023-05-02T11:51:05.667Z,102862.69
2023-05-02T11:53:40.748Z,102862.69
2023-05-02T11:56:07.419Z,102866.53
2023-05-02T11:58:34.252Z,102871.13
2023-05-02T12:01:15.918Z,102858.91
2023-05-02T12:03:42.730Z,102873.50
2023-05-02T12:06:14.366Z,102875.69
2023-05-02T12:08:43.330Z,102874.69
2023-05-02T12:11:09.890Z,102885.25
2023-05-02T12:13:45.006Z,102888.38
2023-05-02T12:16:11.670Z,102888.13
2023-05-02T12:18:38.452Z,102898.94
2023-05-02T12:21:05.841Z,102900.47
2023-05-02T12:23:33.641Z,102893.53
2023-05-02T12:26:15.856Z,102888.25
2023-05-02T12:28:57.296Z,102903.00
2023-05-02T12:31:24.353Z,102895.53
2023-05-02T12:33:52.659Z,102906.38
2023-05-02T12:36:19.777Z,102903.72
2023-05-02T12:38:55.124Z,102908.78
2023-05-02T12:41:51.787Z,102910.59
2023-05-02T12:44:35.678Z,102907.41
2023-05-02T12:47:05.336Z,102907.91
2023-05-02T12:49:31.763Z,102915.22
2023-05-02T12:51:58.256Z,102919.56
2023-05-02T12:54:28.446Z,102923.72
2023-05-02T12:56:54.960Z,102920.41
2023-05-02T12:59:28.736Z,102919.69
2023-05-02T13:01:56.055Z,102924.84
2023-05-02T13:04:22.706Z,102929.19
2023-05-02T13:06:49.320Z,102919.59
2023-05-02T13:09:16.957Z,102917.06
2023-05-02T13:11:43.831Z,102912.94
2023-05-02T13:14:11.544Z,102918.88
2023-05-02T13:16:38.204Z,102920.06
2023-05-02T13:19:08.408Z,102914.34
2023-05-02T13:21:35.009Z,102924.97
2023-05-02T13:24:04.004Z,102920.81
2023-05-02T13:26:33.508Z,102927.53
2023-05-02T13:29:00.001Z,102925.53
2023-05-02T13:31:26.508Z,102936.06
2023-05-02T13:33:53.401Z,102936.31
2023-05-02T13:36:19.906Z,102929.38
2023-05-02T13:38:46.629Z,102929.16
2023-05-02T13:41:13.130Z,102933.69
2023-05-02T13:43:40.595Z,102934.25
2023-05-02T13:46:06.993Z,102933.63
2023-05-02T13:48:33.528Z,102927.19
2023-05-02T13:50:59.970Z,102925.88
2023-05-02T13:53:26.490Z,102929.75
2023-05-02T13:55:52.843Z,102935.81
2023-05-02T13:58:22.218Z,102938.03
2023-05-02T14:00:49.056Z,102939.78
2023-05-02T14:03:16.016Z,102942.75
2023-05-02T14:05:43.756Z,102938.94
2023-05-02T14:08:11.114Z,102946.38
2023-05-02T14:10:38.499Z,102954.75
2023-05-02T14:13:05.335Z,102945.66
2023-05-02T14:15:31.746Z,102952.25
2023-05-02T14:17:58.337Z,102946.69
2023-05-02T14:20:24.859Z,102951.47
2023-05-02T14:22:51.365Z,102938.97
2023-05-02T14:25:19.786Z,102936.72
2023-05-02T14:27:46.947Z,102944.56
2023-05-02T14:30:13.500Z,102940.34
2023-05-02T14:32:46.282Z,102935.25
2023-05-02T14:35:12.733Z,102939.53
2023-05-02T14:37:39.673Z,102951.59
2023-05-02T14:40:06.875Z,102958.97
2023-05-02T14:42:33.530Z,102944.69
2023-05-02T14:45:02.267Z,102952.44
2023-05-02T14:47:31.004Z,102946.66
2023-05-02T14:49:57.415Z,102954.97
2023-05-02T14:52:23.854Z,102953.94
2023-05-02T14:54:50.410Z,102946.44
2023-05-02T14:57:16.960Z,102948.72
2023-05-02T14:59:43.586Z,102947.69
2023-05-02T15:02:10.273Z,102952.03
2023-05-02T15:04:37.071Z,102950.38
2023-05-02T15:07:06.815Z,102944.50
2023-05-02T15:09:33.297Z,102936.50
2023-05-02T15:11:59.729Z,102933.00
2023-05-02T15:14:26.253Z,102944.41
2023-05-02T15:16:52.693Z,102940.81
2023-05-02T15:19:19.282Z,102937.50
2023-05-02T15:21:45.693Z,102925.69
2023-05-02T15:24:12.059Z,102933.09
2023-05-02T15:26:40.332Z,102948.47
2023-05-02T15:29:06.995Z,102935.97
2023-05-02T15:31:36.449Z,102935.91
2023-05-02T15:34:03.380Z,102939.75
2023-05-02T15:36:30.372Z,102925.00
2023-05-02T15:38:57.090Z,102927.38
2023-05-02T15:41:28.549Z,102936.69
2023-05-02T15:43:55.097Z,102935.72
2023-05-02T15:46:24.619Z,102943.28
2023-05-02T15:48:51.245Z,102944.84
2023-05-02T15:51:17.935Z,102942.59
2023-05-02T15:53:47.881Z,102944.16
2023-05-02T15:56:14.382Z,102943.97
2023-05-02T15:58:40.755Z,102945.03
2023-05-02T16:01:09.929Z,102935.50
2023-05-02T16:03:36.874Z,102948.25
2023-05-02T16:06:06.342Z,102946.53
2023-05-02T16:08:33.033Z,102950.06
2023-05-02T16:11:01.365Z,102951.44
2023-05-02T16:13:27.923Z,102940.03
2023-05-02T16:15:57.644Z,102955.09
2023-05-02T16:18:28.237Z,102943.03
2023-05-02T16:20:58.249Z,102941.41
2023-05-02T16:23:25.886Z,102952.63
2023-05-02T16:25:59.298Z,102949.63
2023-05-02T16:28:48.441Z,102954.81
2023-05-02T16:31:15.124Z,102959.66
2023-05-02T16:33:42.777Z,102957.19
2023-05-02T16:36:09.760Z,102950.56
2023-05-02T16:38:38.372Z,102957.03
2023-05-02T16:41:06.901Z,102954.28
2023-05-02T16:43:33.578Z,102953.50
2023-05-02T16:46:06.859Z,102951.13
2023-05-02T16:48:34.680Z,102959.06
2023-05-02T16:51:04.083Z,102957.47
2023-05-02T16:53:32.376Z,102945.13
2023-05-02T16:55:59.624Z,102944.47
2023-05-02T16:58:28.925Z,102956.84
2023-05-02T17:00:56.121Z,102960.78
2023-05-02T17:03:22.875Z,102952.91
2023-05-02T17:05:49.478Z,102954.94
2023-05-02T17:08:16.924Z,102959.69
2023-05-02T17:10:48.415Z,102960.06
2023-05-02T17:13:14.894Z,102970.66
2023-05-02T17:15:41.419Z,102961.38
2023-05-02T17:18:08.089Z,102968.59
2023-05-02T17:20:34.694Z,102974.06
2023-05-02T17:23:02.213Z,102968.47
2023-05-02T17:25:28.618Z,102966.78
2023-05-02T17:27:55.578Z,102961.53
2023-05-02T17:30:22.144Z,102954.06
2023-05-02T17:32:48.558Z,102962.09
2023-05-02T17:35:16.341Z,102959.63
2023-05-02T17:37:43.574Z,102965.47
2023-05-02T17:40:10.971Z,102960.72
2023-05-02T17:42:37.386Z,102969.47
2023-05-02T17:45:04.961Z,102967.97
2023-05-02T17:47:31.435Z,102971.66
2023-05-02T17:50:04.442Z,102979.22
2023-05-02T17:52:35.493Z,102979.59
2023-05-02T17:55:02.127Z,102979.91
2023-05-02T17:57:28.911Z,102981.75
2023-05-02T17:59:59.641Z,102979.59
2023-05-02T18:02:29.989Z,102983.69
2023-05-02T18:04:57.929Z,102984.53
2023-05-02T18:07:24.529Z,102981.09
2023-05-02T18:09:54.394Z,102984.09
2023-05-02T18:12:20.881Z,102992.09
2023-05-02T18:14:47.438Z,103000.63
2023-05-02T18:17:14.042Z,103004.47
2023-05-02T18:19:41.185Z,102993.38
2023-05-02T18:22:07.631Z,103001.44
2023-05-02T18:24:34.112Z,102998.97
2023-05-02T18:27:00.542Z,102994.75
2023-05-02T18:29:26.994Z,102996.97
2023-05-02T18:31:53.925Z,103005.34
2023-05-02T18:34:20.549Z,103004.34
2023-05-02T18:36:47.010Z,102999.84
2023-05-02T18:39:14.219Z,103007.53
2023-05-02T18:41:40.631Z,103002.44
2023-05-02T18:44:09.950Z,103009.06
2023-05-02T18:46:36.363Z,103009.94
2023-05-02T18:49:05.050Z,103001.09
2023-05-02T18:51:31.815Z,103012.19
2023-05-02T18:53:58.221Z,103007.53
2023-05-02T18:56:25.325Z,103007.47
2023-05-02T18:58:56.634Z,103007.69
2023-05-02T19:01:23.932Z,103007.56
2023-05-02T19:03:52.435Z,103013.38
2023-05-02T19:06:19.225Z,103015.38
2023-05-02T19:08:46.970Z,103020.88
2023-05-02T19:11:13.813Z,103019.06
2023-05-02T19:13:40.586Z,103022.13
2023-05-02T19:16:12.528Z,103022.13
2023-05-02T19:18:40.663Z,103028.31
2023-05-02T19:21:12.397Z,103030.47
2023-05-02T19:23:43.182Z,103025.34
2023-05-02T19:26:14.146Z,103025.28
2023-05-02T19:28:40.769Z,103038.22
2023-05-02T19:31:09.363Z,103036.44
2023-05-02T19:33:39.506Z,103036.50
2023-05-02T19:36:07.416Z,103036.03
2023-05-02T19:38:34.962Z,103034.09
2023-05-02T19:41:02.081Z,103041.81
2023-05-02T19:43:28.590Z,103028.53
2023-05-02T19:45:55.192Z,103035.78
2023-05-02T19:48:22.847Z,103040.03
2023-05-02T19:50:49.786Z,103045.06
2023-05-02T19:53:16.206Z,103046.13
2023-05-02T19:55:42.696Z,103040.78
2023-05-02T19:58:09.483Z,103040.97
2023-05-02T20:00:35.984Z,103046.19
2023-05-02T20:03:03.252Z,103048.41
2023-05-02T20:05:30.112Z,103051.81
2023-05-02T20:07:56.654Z,103056.84
2023-05-02T20:10:23.085Z,103067.97
2023-05-02T20:12:49.487Z,103062.41
2023-05-02T20:15:19.031Z,103073.00
2023-05-02T20:17:45.676Z,103080.47
2023-05-02T20:20:12.494Z,103071.25
2023-05-02T20:22:41.527Z,103082.03
2023-05-02T20:25:09.181Z,103067.81
2023-05-02T20:27:35.509Z,103066.31
2023-05-02T20:30:02.213Z,103061.91
2023-05-02T20:32:28.917Z,103076.50
2023-05-02T20:34:55.522Z,103079.94
2023-05-02T20:37:25.616Z,103081.28
2023-05-02T20:39:52.061Z,103085.53
2023-05-02T20:42:23.249Z,103083.19
2023-05-02T20:44:57.218Z,103086.81
2023-05-02T20:47:26.225Z,103092.41
2023-05-02T20:49:53.084Z,103095.53
2023-05-02T20:52:20.072Z,103097.19
2023-05-02T20:54:47.690Z,103106.72
2023-05-02T20:57:15.415Z,103099.94
2023-05-02T20:59:43.379Z,103095.81
2023-05-02T21:02:10.809Z,103101.34
2023-05-02T21:04:37.349Z,103095.25
2023-05-02T21:07:03.912Z,103089.97
2023-05-02T21:09:30.729Z,103093.88
2023-05-02T21:11:57.054Z,103086.59
2023-05-02T21:14:24.584Z,103098.03
2023-05-02T21:16:52.408Z,103094.75
2023-05-02T21:19:19.689Z,103085.09
2023-05-02T21:21:47.182Z,103092.47
2023-05-02T21:24:13.657Z,103092.88
2023-05-02T21:26:43.070Z,103093.00
2023-05-02T21:29:10.859Z,103090.50
2023-05-02T21:31:39.366Z,103084.44
2023-05-02T21:34:06.118Z,103085.38
2023-05-02T21:36:32.683Z,103090.50
2023-05-02T21:38:59.147Z,103088.94
2023-05-02T21:41:28.069Z,103082.84
2023-05-02T21:43:54.466Z,103079.53
2023-05-02T21:46:21.041Z,103087.63
2023-05-02T21:48:47.442Z,103085.94
2023-05-02T21:51:14.118Z,103091.97
2023-05-02T21:53:40.971Z,103096.69
2023-05-02T21:56:08.141Z,103095.63
2023-05-02T21:58:37.613Z,103099.09
2023-05-02T22:01:05.707Z,103101.78
2023-05-02T22:03:36.483Z,103098.69
2023-05-02T22:06:06.234Z,103091.56
2023-05-02T22:08:33.268Z,103093.47
2023-05-02T22:10:59.723Z,103086.13
2023-05-02T22:13:26.215Z,103076.72
2023-05-02T22:15:55.027Z,103079.47
2023-05-02T22:18:21.473Z,103075.34
2023-05-02T22:20:50.700Z,103077.25
2023-05-02T22:23:17.147Z,103073.47
2023-05-02T22:25:46.203Z,103073.53
2023-05-02T22:28:13.639Z,103067.78
2023-05-02T22:30:42.891Z,103081.63
2023-05-02T22:33:09.457Z,103077.25
2023-05-02T22:35:37.764Z,103073.47
2023-05-02T22:38:10.909Z,103075.06
2023-05-02T22:40:37.370Z,103074.97
2023-05-02T22:43:03.883Z,103063.28
2023-05-02T22:45:30.554Z,103066.25
2023-05-02T22:47:57.150Z,103066.66
2023-05-02T22:50:24.522Z,103071.63
2023-05-02T22:52:51.092Z,103075.84
2023-05-02T22:55:17.572Z,103082.25
2023-05-02T22:57:44.085Z,103074.31
2023-05-02T23:00:11.150Z,103079.78
2023-05-02T23:02:38.331Z,103078.22
2023-05-02T23:05:06.420Z,103082.00
2023-05-02T23:07:33.141Z,103082.97
2023-05-02T23:10:02.551Z,103087.00
2023-05-02T23:12:29.248Z,103082.72
2023-05-02T23:14:55.645Z,103088.34
2023-05-02T23:17:22.245Z,103084.06
2023-05-02T23:19:50.012Z,103095.09
2023-05-02T23:22:16.547Z,103098.03
2023-05-02T23:24:48.894Z,103088.38
2023-05-02T23:27:15.466Z,103093.66
2023-05-02T23:29:41.859Z,103087.81
2023-05-02T23:32:08.452Z,103083.50
2023-05-02T23:34:38.338Z,103089.00
2023-05-02T23:37:07.146Z,103098.91
2023-05-02T23:39:34.186Z,103109.44
2023-05-02T23:42:03.535Z,103110.44
2023-05-02T23:44:30.753Z,103110.25
2023-05-02T23:46:58.720Z,103107.03
2023-05-02T23:49:25.937Z,103109.72
2023-05-02T23:51:52.381Z,103106.44
2023-05-02T23:54:18.755Z,103113.72
2023-05-02T23:56:46.170Z,103119.97
2023-05-02T23:59:12.588Z,103116.97
